Site:       
  Group:  
  From:      To:        
   
Sensor Name: Furnace      Latitude:-9.57320000 , Longitude:53.92290000
Please click on the Table Headers to view a Graph of the Observations.
TimeMax. Temp. (°C)Min. Temp. (°C)Mean Temp. (°C)Tot. Rain (mm)Mean Wind (kn)Max Gust (kn)Solar Rad. (J\cm2)Humidity (%)Atmos. Press. (mb)Temp. 5cm (°C)Temp. 10cm (°C)Temp. 20cm (°C)Temp. 30cm (°C)Temp. 50cm (°C)Temp. 100cm (°C)Grass Min. (°C)
17/01/2019 23:00:003.50 3.20 3.40 0.00 13.20 23.30 0.00 85.50 1007.80 3.90 4.00 5.10 6.10 7.30 8.90 -999.00
17/01/2019 22:00:003.20 2.90 3.00 0.20 11.60 19.00 0.00 84.10 1008.70 3.90 4.10 5.10 6.10 7.40 8.90 -999.00
17/01/2019 21:00:003.90 3.20 3.60 0.00 11.20 18.40 0.00 77.00 1009.60 4.00 4.20 5.20 6.20 7.40 8.90 -999.00
17/01/2019 20:00:003.80 3.40 3.60 0.00 9.40 15.80 0.00 78.70 1010.70 4.10 4.30 5.20 6.20 7.40 8.90 -999.00
17/01/2019 19:00:003.60 3.50 3.60 0.00 9.00 13.90 0.00 74.90 1011.70 4.30 4.50 5.30 6.20 7.40 8.90 -999.00
17/01/2019 18:00:004.00 3.50 3.80 0.00 7.10 11.10 0.00 73.00 1012.80 4.50 4.70 5.30 6.20 7.50 8.90 -999.00
17/01/2019 17:00:004.80 4.00 4.40 0.00 4.90 8.40 1.90 70.70 1013.70 4.80 4.90 5.20 6.20 7.50 8.90 -999.00
17/01/2019 16:00:005.80 4.80 5.30 0.00 3.70 6.20 23.60 74.00 1014.10 4.90 4.80 5.10 6.20 7.50 8.90 -999.00
17/01/2019 15:00:005.10 5.00 5.10 0.00 3.20 6.40 24.70 78.80 1014.40 4.70 4.60 5.00 6.20 7.60 8.90 -999.00
17/01/2019 14:00:005.40 5.00 5.20 0.00 3.90 8.20 35.80 79.10 1015.10 4.40 4.30 4.90 6.20 7.60 8.90 -999.00
17/01/2019 13:00:005.10 3.90 4.50 0.00 1.40 3.30 47.30 82.20 1016.00 4.00 3.90 4.80 6.20 7.70 8.90 -999.00
17/01/2019 12:00:003.90 3.10 3.50 0.00 1.80 5.70 40.90 84.70 1016.40 3.40 3.50 4.80 6.30 7.70 8.90 -999.00
17/01/2019 11:00:003.40 2.60 3.00 0.00 3.60 5.70 26.70 85.80 1016.40 3.10 3.20 4.90 6.30 7.80 8.90 -999.00
17/01/2019 10:00:003.00 2.50 2.70 0.00 4.20 8.00 10.90 88.50 1015.90 3.00 3.20 5.00 6.40 7.80 8.90 -999.00
17/01/2019 09:00:002.90 2.30 2.60 0.00 2.80 9.90 1.00 88.20 1015.80 3.10 3.30 5.20 6.50 7.80 8.90 -999.00
17/01/2019 08:00:003.00 2.50 2.70 0.00 1.80 4.20 0.00 85.00 1015.40 3.30 3.60 5.30 6.60 7.90 8.90 -999.00
17/01/2019 07:00:004.10 2.90 3.50 0.10 4.70 16.00 0.00 84.20 1014.90 3.40 3.70 5.40 6.70 7.90 8.90 -999.00
17/01/2019 06:00:003.80 3.00 3.40 0.00 4.50 16.00 0.00 80.20 1014.50 3.50 3.70 5.60 6.80 8.00 9.00 -999.00
17/01/2019 05:00:003.00 2.30 2.60 0.00 2.30 12.60 0.00 75.00 1013.60 3.60 3.90 5.80 6.90 8.00 9.00 -999.00
17/01/2019 04:00:003.30 2.40 2.80 0.00 2.00 5.70 0.00 69.20 1013.00 3.90 4.30 6.00 7.00 8.00 9.00 -999.00
17/01/2019 03:00:003.30 2.70 3.00 0.00 2.40 9.90 0.00 73.60 1012.30 4.30 4.70 6.10 7.10 8.00 9.00 -999.00
17/01/2019 02:00:005.50 3.30 4.40 0.00 10.30 21.80 0.00 75.80 1011.20 4.80 5.10 6.30 7.20 8.10 9.00 -999.00
17/01/2019 01:00:005.70 5.10 5.40 0.10 13.80 24.00 0.00 83.90 1009.70 5.20 5.40 6.30 7.20 8.10 9.00 -999.00
17/01/2019 00:00:006.40 5.00 5.70 0.10 18.10 34.40 0.00 86.00 1007.70 5.40 5.50 6.40 7.30 8.10 9.00 3.80
16/01/2019 23:00:006.80 6.40 6.60 0.00 18.70 29.80 0.00 82.70 1005.50 5.40 5.60 6.40 7.30 8.20 9.00 -999.00
16/01/2019 22:00:006.80 6.20 6.50 0.80 21.50 37.00 0.00 86.10 1003.60 5.40 5.50 6.40 7.30 8.20 9.00 -999.00